createdAt,value
2022-12-22T00:00:01.999Z,98484.97
2022-12-22T00:02:47.573Z,98483.28
2022-12-22T00:05:38.546Z,98481.53
2022-12-22T00:08:24.604Z,98475.59
2022-12-22T00:11:11.182Z,98476.44
2022-12-22T00:13:58.645Z,98484.97
2022-12-22T00:16:49.862Z,98482.41
2022-12-22T00:19:35.319Z,98478.16
2022-12-22T00:22:21.897Z,98473.06
2022-12-22T00:25:06.766Z,98475.56
2022-12-22T00:27:52.163Z,98478.13
2022-12-22T00:30:37.383Z,98473.03
2022-12-22T00:33:24.013Z,98469.66
2022-12-22T00:36:10.247Z,98461.97
2022-12-22T00:38:55.281Z,98459.44
2022-12-22T00:41:40.314Z,98462.81
2022-12-22T00:44:25.469Z,98460.25
2022-12-22T00:47:10.955Z,98456.84
2022-12-22T00:49:55.964Z,98457.72
2022-12-22T00:52:42.333Z,98455.16
2022-12-22T00:55:36.120Z,98456.84
2022-12-22T00:58:22.771Z,98455.16
2022-12-22T01:01:07.908Z,98453.47
2022-12-22T01:03:53.201Z,98450.06
2022-12-22T01:06:38.643Z,98450.88
2022-12-22T01:09:24.072Z,98457.72
2022-12-22T01:12:09.865Z,98450.06
2022-12-22T01:14:55.094Z,98437.25
2022-12-22T01:17:40.163Z,98452.59
2022-12-22T01:20:26.264Z,98448.34
2022-12-22T01:23:11.192Z,98437.25
2022-12-22T01:25:56.290Z,98433.00
2022-12-22T01:28:41.453Z,98428.78
2022-12-22T01:31:39.471Z,98436.44
2022-12-22T01:34:24.387Z,98431.31
2022-12-22T01:37:09.380Z,98420.25
2022-12-22T01:39:54.274Z,98423.66
2022-12-22T01:42:39.139Z,98422.81
2022-12-22T01:45:44.632Z,98419.38
2022-12-22T01:48:32.656Z,98419.38
2022-12-22T01:51:20.818Z,98423.66
2022-12-22T01:54:06.758Z,98419.38
2022-12-22T01:56:52.225Z,98413.44
2022-12-22T01:59:37.393Z,98412.59
2022-12-22T02:02:26.627Z,98403.22
2022-12-22T02:05:15.911Z,98421.94
2022-12-22T02:08:23.115Z,98416.84
2022-12-22T02:11:13.513Z,98426.22
2022-12-22T02:14:30.632Z,98422.81
2022-12-22T02:17:28.036Z,98426.22
2022-12-22T02:20:15.899Z,98419.38
2022-12-22T02:23:15.621Z,98418.56
2022-12-22T02:26:09.218Z,98409.16
2022-12-22T02:28:55.076Z,98403.22
2022-12-22T02:31:40.529Z,98405.78
2022-12-22T02:34:32.397Z,98406.59
2022-12-22T02:37:43.637Z,98416.00
2022-12-22T02:40:41.618Z,98417.69
2022-12-22T02:43:45.367Z,98429.59
2022-12-22T02:46:38.663Z,98418.56
2022-12-22T02:49:56.789Z,98419.38
2022-12-22T02:52:49.511Z,98421.09
2022-12-22T02:55:35.841Z,98416.00
2022-12-22T02:58:21.029Z,98406.59
2022-12-22T03:01:06.464Z,98400.66
2022-12-22T03:03:51.443Z,98402.34
2022-12-22T03:06:36.744Z,98404.06
2022-12-22T03:09:22.179Z,98405.78
2022-12-22T03:12:07.488Z,98402.34
2022-12-22T03:14:53.827Z,98413.44
2022-12-22T03:17:38.813Z,98418.53
2022-12-22T03:20:26.869Z,98425.34
2022-12-22T03:23:12.349Z,98421.09
2022-12-22T03:25:52.500Z,98423.66
2022-12-22T03:28:20.950Z,98416.84
2022-12-22T03:30:54.132Z,98417.69
2022-12-22T03:33:21.462Z,98411.75
2022-12-22T03:35:48.081Z,98410.88
2022-12-22T03:38:14.632Z,98406.63
2022-12-22T03:40:41.795Z,98404.06
2022-12-22T03:43:31.081Z,98401.53
2022-12-22T03:46:16.164Z,98391.28
2022-12-22T03:48:43.930Z,98392.13
2022-12-22T03:51:11.460Z,98393.00
2022-12-22T03:53:38.223Z,98389.56
2022-12-22T03:56:07.988Z,98386.19
2022-12-22T03:58:35.159Z,98390.44
2022-12-22T04:01:06.850Z,98392.13
2022-12-22T04:03:33.649Z,98375.97
2022-12-22T04:06:00.269Z,98380.22
2022-12-22T04:08:26.831Z,98386.19
2022-12-22T04:11:11.896Z,98382.78
2022-12-22T04:13:38.469Z,98380.22
2022-12-22T04:16:05.240Z,98373.41
2022-12-22T04:18:32.013Z,98361.50
2022-12-22T04:20:58.553Z,98347.00
2022-12-22T04:23:25.125Z,98347.84
2022-12-22T04:25:51.742Z,98352.94
2022-12-22T04:28:18.349Z,98342.72
2022-12-22T04:30:44.943Z,98345.28
2022-12-22T04:33:11.467Z,98335.91
2022-12-22T04:35:38.085Z,98341.88
2022-12-22T04:38:04.635Z,98341.88
2022-12-22T04:40:31.173Z,98345.25
2022-12-22T04:42:57.845Z,98348.69
2022-12-22T04:45:24.546Z,98349.53
2022-12-22T04:47:51.173Z,98353.78
2022-12-22T04:50:17.791Z,98358.06
2022-12-22T04:52:44.368Z,98358.06
2022-12-22T04:55:10.908Z,98350.38
2022-12-22T04:57:40.897Z,98350.38
2022-12-22T05:00:10.240Z,98346.97
2022-12-22T05:02:37.116Z,98350.38
2022-12-22T05:05:04.213Z,98348.66
2022-12-22T05:07:30.732Z,98345.28
2022-12-22T05:09:57.376Z,98346.97
2022-12-22T05:12:42.549Z,98343.53
2022-12-22T05:15:09.422Z,98339.28
2022-12-22T05:17:35.927Z,98341.84
2022-12-22T05:20:02.662Z,98343.56
2022-12-22T05:22:29.196Z,98341.00
2022-12-22T05:24:55.694Z,98336.72
2022-12-22T05:27:22.202Z,98343.56
2022-12-22T05:29:48.690Z,98323.13
2022-12-22T05:32:15.217Z,98326.50
2022-12-22T05:34:41.693Z,98325.66
2022-12-22T05:37:08.267Z,98324.81
2022-12-22T05:39:34.782Z,98322.25
2022-12-22T05:42:01.303Z,98317.13
2022-12-22T05:44:28.002Z,98322.22
2022-12-22T05:46:54.715Z,98320.53
2022-12-22T05:49:21.435Z,98319.66
2022-12-22T05:51:48.385Z,98322.22
2022-12-22T05:54:15.119Z,98325.63
2022-12-22T05:56:41.669Z,98318.81
2022-12-22T05:59:08.296Z,98318.81
2022-12-22T06:01:34.838Z,98331.59
2022-12-22T06:04:01.515Z,98333.28
2022-12-22T06:06:28.613Z,98332.44
2022-12-22T06:08:55.214Z,98334.97
2022-12-22T06:11:21.780Z,98333.28
2022-12-22T06:13:49.786Z,98334.97
2022-12-22T06:16:16.513Z,98332.44
2022-12-22T06:18:43.151Z,98338.41
2022-12-22T06:21:09.678Z,98343.50
2022-12-22T06:23:36.174Z,98347.78
2022-12-22T06:26:03.118Z,98353.72
2022-12-22T06:28:29.648Z,98347.78
2022-12-22T06:30:56.580Z,98340.94
2022-12-22T06:33:23.650Z,98345.22
2022-12-22T06:35:57.568Z,98345.22
2022-12-22T06:38:25.919Z,98334.13
2022-12-22T06:40:52.491Z,98349.47
2022-12-22T06:43:19.240Z,98353.72
2022-12-22T06:45:46.049Z,98353.72
2022-12-22T06:48:13.603Z,98355.44
2022-12-22T06:50:40.363Z,98352.03
2022-12-22T06:53:07.899Z,98353.72
2022-12-22T06:55:34.778Z,98351.16
2022-12-22T06:58:02.161Z,98357.13
2022-12-22T07:00:29.041Z,98357.97
2022-12-22T07:02:56.058Z,98358.84
2022-12-22T07:05:26.247Z,98358.84
2022-12-22T07:07:53.440Z,98350.31
2022-12-22T07:10:39.975Z,98357.09
2022-12-22T07:13:19.503Z,98355.41
2022-12-22T07:15:49.732Z,98353.72
2022-12-22T07:18:19.109Z,98349.44
2022-12-22T07:20:45.867Z,98343.44
2022-12-22T07:23:12.742Z,98346.00
2022-12-22T07:25:39.388Z,98343.41
2022-12-22T07:28:06.891Z,98351.94
2022-12-22T07:30:34.160Z,98342.56
2022-12-22T07:33:00.850Z,98333.19
2022-12-22T07:35:27.408Z,98339.97
2022-12-22T07:37:53.997Z,98328.88
2022-12-22T07:40:20.542Z,98328.00
2022-12-22T07:42:47.223Z,98335.66
2022-12-22T07:45:16.242Z,98325.41
2022-12-22T07:47:44.124Z,98322.81
2022-12-22T07:50:25.997Z,98317.69
2022-12-22T07:52:52.984Z,98321.09
2022-12-22T07:55:20.638Z,98309.16
2022-12-22T07:57:47.204Z,98307.44
2022-12-22T08:00:17.062Z,98306.53
2022-12-22T08:02:45.295Z,98295.44
2022-12-22T08:05:11.962Z,98296.28
2022-12-22T08:07:38.553Z,98298.81
2022-12-22T08:10:05.475Z,98306.50
2022-12-22T08:12:32.729Z,98307.34
2022-12-22T08:14:59.712Z,98309.06
2022-12-22T08:17:27.831Z,98308.22
2022-12-22T08:19:57.611Z,98309.06
2022-12-22T08:22:25.011Z,98314.19
2022-12-22T08:24:53.425Z,98317.59
2022-12-22T08:27:42.567Z,98309.06
2022-12-22T08:30:10.182Z,98318.47
2022-12-22T08:32:38.654Z,98297.16
2022-12-22T08:35:07.501Z,98309.09
2022-12-22T08:37:41.399Z,98311.66
2022-12-22T08:40:16.404Z,98321.03
2022-12-22T08:42:43.129Z,98315.13
2022-12-22T08:45:11.454Z,98313.41
2022-12-22T08:47:38.153Z,98310.84
2022-12-22T08:50:05.614Z,98317.66
2022-12-22T08:52:32.170Z,98318.53
2022-12-22T08:54:58.737Z,98313.41
2022-12-22T08:57:25.364Z,98305.75
2022-12-22T08:59:51.955Z,98298.94
2022-12-22T09:02:18.663Z,98283.59
2022-12-22T09:04:45.395Z,98292.97
2022-12-22T09:07:11.960Z,98293.78
2022-12-22T09:09:38.565Z,98275.88
2022-12-22T09:12:06.030Z,98275.03
2022-12-22T09:14:32.909Z,98268.22
2022-12-22T09:17:00.418Z,98269.91
2022-12-22T09:19:27.128Z,98271.63
2022-12-22T09:21:54.406Z,98282.69
2022-12-22T09:24:20.939Z,98275.03
2022-12-22T09:26:47.501Z,98271.63
2022-12-22T09:29:15.610Z,98272.47
2022-12-22T09:31:42.715Z,98272.44
2022-12-22T09:34:15.350Z,98275.84
2022-12-22T09:36:45.029Z,98279.28
2022-12-22T09:39:11.739Z,98270.72
2022-12-22T09:41:49.650Z,98264.75
2022-12-22T09:44:19.415Z,98260.44
2022-12-22T09:46:46.061Z,98253.63
2022-12-22T09:49:18.511Z,98263.00
2022-12-22T09:51:50.920Z,98254.44
2022-12-22T09:54:17.590Z,98242.53
2022-12-22T09:56:44.278Z,98239.91
2022-12-22T09:59:13.202Z,98239.06
2022-12-22T10:01:57.511Z,98242.44
2022-12-22T10:04:29.859Z,98244.13
2022-12-22T10:07:03.824Z,98239.03
2022-12-22T10:12:25.092Z,98239.81
2022-12-22T10:14:58.059Z,98244.13
2022-12-22T10:17:33.326Z,98239.78
2022-12-22T10:20:22.021Z,98243.16
2022-12-22T10:22:51.769Z,98237.19
2022-12-22T10:25:39.803Z,98236.34
2022-12-22T10:28:22.407Z,98227.81
2022-12-22T10:30:49.218Z,98227.81
2022-12-22T10:33:19.565Z,98230.34
2022-12-22T10:35:53.694Z,98244.00
2022-12-22T10:38:39.515Z,98245.69
2022-12-22T10:41:16.924Z,98240.56
2022-12-22T10:43:53.424Z,98241.44
2022-12-22T10:46:31.741Z,98242.25
2022-12-22T10:49:12.480Z,98245.69
2022-12-22T10:51:42.964Z,98237.16
2022-12-22T10:54:09.503Z,98237.09
2022-12-22T10:56:37.139Z,98226.03
2022-12-22T10:59:04.084Z,98221.75
2022-12-22T11:01:33.192Z,98215.78
2022-12-22T11:04:33.036Z,98212.38
2022-12-22T11:07:00.107Z,98214.09
2022-12-22T11:09:35.313Z,98212.41
2022-12-22T11:12:20.658Z,98216.66
2022-12-22T11:14:58.675Z,98213.25
2022-12-22T11:17:46.844Z,98208.13
2022-12-22T11:20:28.566Z,98212.41
2022-12-22T11:23:20.542Z,98212.41
2022-12-22T11:26:11.648Z,98192.75
2022-12-22T11:29:00.005Z,98160.31
2022-12-22T11:31:29.673Z,98113.38
2022-12-22T11:34:34.377Z,98141.50
2022-12-22T11:37:14.623Z,98191.03
2022-12-22T11:39:59.294Z,98198.72
2022-12-22T11:42:50.873Z,98186.84
2022-12-22T11:45:35.253Z,98163.84
2022-12-22T11:48:24.745Z,98135.66
2022-12-22T11:50:58.141Z,98131.38
2022-12-22T11:53:50.784Z,98148.41
2022-12-22T11:56:25.219Z,98147.56
2022-12-22T11:59:10.549Z,98129.63
2022-12-22T12:02:08.320Z,98126.22
2022-12-22T12:05:11.351Z,98130.50
2022-12-22T12:07:42.874Z,98126.25
2022-12-22T12:10:19.176Z,98117.69
2022-12-22T12:12:52.946Z,98121.09
2022-12-22T12:15:38.113Z,98117.66
2022-12-22T12:18:27.002Z,98110.84
2022-12-22T12:20:59.620Z,98115.06
2022-12-22T12:23:47.996Z,98124.47
2022-12-22T12:26:23.973Z,98115.16
2022-12-22T12:29:16.527Z,98124.53
2022-12-22T12:31:54.691Z,98117.72
2022-12-22T12:34:22.939Z,98113.44
2022-12-22T12:37:12.210Z,98110.03
2022-12-22T12:40:16.488Z,98105.72
2022-12-22T12:42:45.374Z,98111.66
2022-12-22T12:45:38.536Z,98112.50
2022-12-22T12:48:20.385Z,98120.16
2022-12-22T12:50:59.386Z,98127.00
2022-12-22T12:53:30.212Z,98118.44
2022-12-22T12:56:02.623Z,98096.22
2022-12-22T12:58:35.241Z,98107.28
2022-12-22T13:01:03.749Z,98110.69
2022-12-22T13:04:01.945Z,98124.34
2022-12-22T13:06:51.025Z,98120.13
2022-12-22T13:09:49.034Z,98126.13
2022-12-22T13:12:34.971Z,98115.03
2022-12-22T13:15:02.373Z,98119.34
2022-12-22T13:17:34.237Z,98110.84
2022-12-22T13:20:01.051Z,98104.91
2022-12-22T13:22:27.752Z,98106.59
2022-12-22T13:24:56.224Z,98095.53
2022-12-22T13:27:22.853Z,98093.81
2022-12-22T13:29:52.215Z,98091.28
2022-12-22T13:32:36.050Z,98086.16
2022-12-22T13:35:44.820Z,98066.56
2022-12-22T13:38:30.348Z,98085.34
2022-12-22T13:41:00.287Z,98081.94
2022-12-22T13:43:29.735Z,98085.38
2022-12-22T13:45:59.139Z,98093.94
2022-12-22T13:48:38.392Z,98100.78
2022-12-22T13:51:13.704Z,98099.06
2022-12-22T13:54:07.684Z,98096.50
2022-12-22T13:56:46.113Z,98086.28
2022-12-22T13:59:28.194Z,98103.41
2022-12-22T14:02:19.711Z,98105.94
2022-12-22T14:05:08.778Z,98094.03
2022-12-22T14:07:35.556Z,98094.03
2022-12-22T14:10:02.237Z,98092.31
2022-12-22T14:12:32.614Z,98096.59
2022-12-22T14:15:03.181Z,98106.84
2022-12-22T14:17:32.709Z,98105.97
2022-12-22T14:20:01.613Z,98108.53
2022-12-22T14:22:37.830Z,98110.28
2022-12-22T14:25:13.816Z,98097.47
2022-12-22T14:27:53.254Z,98092.34
2022-12-22T14:30:23.443Z,98084.69
2022-12-22T14:32:55.381Z,98089.81
2022-12-22T14:35:26.495Z,98094.09
2022-12-22T14:38:13.163Z,98089.81
2022-12-22T14:40:43.019Z,98092.38
2022-12-22T14:43:18.675Z,98103.50
2022-12-22T14:45:47.248Z,98097.53
2022-12-22T14:48:28.247Z,98092.41
2022-12-22T14:50:55.757Z,98088.19
2022-12-22T14:53:37.682Z,98091.59
2022-12-22T14:56:04.293Z,98077.97
2022-12-22T14:58:38.883Z,98081.38
2022-12-22T15:01:28.567Z,98084.81
2022-12-22T15:04:05.561Z,98071.13
2022-12-22T15:06:35.973Z,98076.22
2022-12-22T15:09:12.225Z,98094.13
2022-12-22T15:11:48.296Z,98113.78
2022-12-22T15:14:21.585Z,98131.72
2022-12-22T15:16:49.007Z,98121.47
2022-12-22T15:19:20.864Z,98111.25
2022-12-22T15:21:47.359Z,98120.63
2022-12-22T15:24:16.414Z,98119.75
2022-12-22T15:26:46.687Z,98124.03
2022-12-22T15:29:16.892Z,98129.16
2022-12-22T15:31:50.565Z,98103.56
2022-12-22T15:34:26.269Z,98050.66
2022-12-22T15:37:07.720Z,98131.72
2022-12-22T15:39:34.424Z,98115.53
2022-12-22T15:42:01.253Z,98126.59
2022-12-22T15:44:31.077Z,98127.41
2022-12-22T15:47:04.784Z,98127.41
2022-12-22T15:49:31.915Z,98128.28
2022-12-22T15:52:01.725Z,98135.06
2022-12-22T15:54:31.081Z,98131.69
2022-12-22T15:56:57.658Z,98125.75
2022-12-22T15:59:27.103Z,98127.44
2022-12-22T16:02:00.587Z,98124.03
2022-12-22T16:04:28.623Z,98117.19
2022-12-22T16:06:55.560Z,98109.53
2022-12-22T16:09:25.499Z,98116.38
2022-12-22T16:11:52.368Z,98136.00
2022-12-22T16:14:20.709Z,98130.03
2022-12-22T16:16:48.543Z,98110.44
2022-12-22T16:19:17.003Z,98104.44
2022-12-22T16:21:47.637Z,98108.72
2022-12-22T16:24:29.641Z,98114.69
2022-12-22T16:26:57.205Z,98124.91
2022-12-22T16:29:25.315Z,98121.47
2022-12-22T16:31:52.641Z,98128.34
2022-12-22T16:34:19.497Z,98124.91
2022-12-22T16:36:46.092Z,98129.16
2022-12-22T16:39:12.599Z,98118.94
2022-12-22T16:41:39.293Z,98108.72
2022-12-22T16:44:08.728Z,98106.16
2022-12-22T16:46:39.978Z,98119.84
2022-12-22T16:49:08.614Z,98105.31
2022-12-22T16:51:40.337Z,98103.63
2022-12-22T16:54:07.391Z,98109.59
2022-12-22T16:56:35.007Z,98113.00
2022-12-22T16:59:04.529Z,98107.91
2022-12-22T17:01:41.459Z,98098.50
2022-12-22T17:04:12.003Z,98080.59
2022-12-22T17:06:39.938Z,98082.28
2022-12-22T17:09:13.735Z,98087.44
2022-12-22T17:11:40.391Z,98084.00
2022-12-22T17:14:17.891Z,98082.31
2022-12-22T17:16:44.473Z,98084.84
2022-12-22T17:19:11.688Z,98086.59
2022-12-22T17:21:38.425Z,98077.19
2022-12-22T17:24:05.269Z,98083.16
2022-12-22T17:26:34.504Z,98081.47
2022-12-22T17:29:01.875Z,98088.28
2022-12-22T17:31:28.732Z,98078.91
2022-12-22T17:33:55.399Z,98071.22
2022-12-22T17:36:30.961Z,98069.53
2022-12-22T17:38:58.678Z,98069.50
2022-12-22T17:41:25.376Z,98080.59
2022-12-22T17:43:51.944Z,98077.19
2022-12-22T17:46:21.102Z,98067.78
2022-12-22T17:48:48.235Z,98075.47
2022-12-22T17:51:25.117Z,98069.47
2022-12-22T17:53:52.845Z,98055.84
2022-12-22T17:56:22.664Z,98046.44
2022-12-22T17:58:50.058Z,98050.69
2022-12-22T18:01:28.928Z,98056.66
2022-12-22T18:03:56.384Z,98048.13
2022-12-22T18:06:28.248Z,98052.38
2022-12-22T18:08:56.422Z,98047.28
2022-12-22T18:11:24.111Z,98041.28
2022-12-22T18:13:51.842Z,98038.72
2022-12-22T18:16:20.476Z,98031.00
2022-12-22T18:18:47.596Z,98034.44
2022-12-22T18:21:17.520Z,98032.72
2022-12-22T18:23:49.969Z,98020.78
2022-12-22T18:26:22.235Z,98015.66
2022-12-22T18:28:49.501Z,98019.94
2022-12-22T18:31:16.363Z,98018.19
2022-12-22T18:33:43.109Z,98002.81
2022-12-22T18:36:25.235Z,98000.25
2022-12-22T18:38:51.867Z,98002.81
2022-12-22T18:41:21.861Z,98004.50
2022-12-22T18:43:48.707Z,98013.91
2022-12-22T18:46:15.489Z,98018.16
2022-12-22T18:48:42.161Z,98013.03
2022-12-22T18:51:19.859Z,98011.28
2022-12-22T18:53:46.603Z,98010.44
2022-12-22T18:56:14.472Z,98003.63
2022-12-22T18:58:41.672Z,98009.56
2022-12-22T19:01:17.276Z,98009.56
2022-12-22T19:03:45.613Z,98013.81
2022-12-22T19:06:18.587Z,98013.81
2022-12-22T19:08:47.298Z,98003.59
2022-12-22T19:11:16.271Z,98009.56
2022-12-22T19:13:45.941Z,98003.56
2022-12-22T19:16:18.748Z,98006.13
2022-12-22T19:18:45.381Z,98001.00
2022-12-22T19:21:16.839Z,98004.44
2022-12-22T19:23:43.669Z,98012.97
2022-12-22T19:26:20.236Z,98014.66
2022-12-22T19:28:50.676Z,98016.38
2022-12-22T19:31:23.121Z,98028.34
2022-12-22T19:33:49.800Z,98027.47
2022-12-22T19:36:20.120Z,98024.94
2022-12-22T19:38:50.470Z,98025.81
2022-12-22T19:41:38.791Z,98018.13
2022-12-22T19:44:06.118Z,98017.28
2022-12-22T19:46:34.730Z,98019.81
2022-12-22T19:49:01.552Z,98010.44
2022-12-22T19:51:28.867Z,98008.72
2022-12-22T19:53:55.477Z,98010.44
2022-12-22T19:56:26.596Z,98004.47
2022-12-22T19:58:55.789Z,98003.59
2022-12-22T20:01:22.849Z,98000.22
2022-12-22T20:03:49.750Z,97992.53
2022-12-22T20:06:17.767Z,97995.09
2022-12-22T20:08:44.794Z,97996.78
2022-12-22T20:11:17.796Z,97991.66
2022-12-22T20:13:45.989Z,97991.69
2022-12-22T20:16:14.611Z,97994.25
2022-12-22T20:18:45.919Z,97996.78
2022-12-22T20:21:26.125Z,97984.84
2022-12-22T20:23:54.777Z,97980.59
2022-12-22T20:26:24.984Z,97978.03
2022-12-22T20:28:52.440Z,97981.47
2022-12-22T20:31:21.483Z,97980.59
2022-12-22T20:33:48.265Z,97977.19
2022-12-22T20:36:23.831Z,97965.25
2022-12-22T20:38:52.429Z,97974.63
2022-12-22T20:41:19.830Z,97976.34
2022-12-22T20:43:46.383Z,97979.75
2022-12-22T20:46:20.079Z,97976.34
2022-12-22T20:48:49.868Z,97978.03
2022-12-22T20:51:19.504Z,97977.19
2022-12-22T20:53:47.371Z,97975.50
2022-12-22T20:56:19.799Z,97977.19
2022-12-22T20:58:46.703Z,97981.47
2022-12-22T21:01:13.360Z,97981.47
2022-12-22T21:03:40.148Z,97984.88
2022-12-22T21:06:29.092Z,97988.25
2022-12-22T21:08:58.522Z,97981.47
2022-12-22T21:11:25.633Z,97982.31
2022-12-22T21:13:53.042Z,97979.75
2022-12-22T21:16:23.976Z,97983.16
2022-12-22T21:18:51.741Z,97983.16
2022-12-22T21:21:19.102Z,97992.53
2022-12-22T21:23:45.917Z,97980.56
2022-12-22T21:26:21.518Z,97985.69
2022-12-22T21:28:48.796Z,97984.00
2022-12-22T21:31:15.412Z,97978.00
2022-12-22T21:33:42.172Z,97986.53
2022-12-22T21:36:19.584Z,97989.09
2022-12-22T21:38:47.415Z,97982.31
2022-12-22T21:41:14.149Z,97990.78
2022-12-22T21:43:40.750Z,97983.97
2022-12-22T21:46:11.803Z,97982.28
2022-12-22T21:48:38.477Z,97984.81
2022-12-22T21:51:05.333Z,97977.13
2022-12-22T21:53:31.940Z,97979.69
2022-12-22T21:55:58.466Z,97977.97
2022-12-22T21:58:25.012Z,97970.31
2022-12-22T22:00:51.599Z,97974.56
2022-12-22T22:03:18.183Z,97975.44
2022-12-22T22:05:44.958Z,97969.47
2022-12-22T22:08:12.528Z,97971.13
2022-12-22T22:10:41.740Z,97962.63
2022-12-22T22:13:08.618Z,97954.09
2022-12-22T22:15:35.678Z,97950.69
2022-12-22T22:18:06.919Z,97956.66
2022-12-22T22:20:34.188Z,97951.56
2022-12-22T22:23:00.830Z,97954.94
2022-12-22T22:25:27.602Z,97958.38
2022-12-22T22:27:54.184Z,97955.81
2022-12-22T22:30:25.335Z,97960.94
2022-12-22T22:32:52.817Z,97960.94
2022-12-22T22:35:20.312Z,97962.63
2022-12-22T22:37:50.691Z,97969.47
2022-12-22T22:40:22.232Z,97956.66
2022-12-22T22:42:49.494Z,97966.03
2022-12-22T22:45:24.166Z,97969.47
2022-12-22T22:47:51.576Z,97959.22
2022-12-22T22:50:19.495Z,97959.22
2022-12-22T22:52:47.532Z,97956.63
2022-12-22T22:55:14.542Z,97950.66
2022-12-22T22:57:42.733Z,97944.69
2022-12-22T23:00:11.890Z,97957.50
2022-12-22T23:02:38.638Z,97954.06
2022-12-22T23:05:14.100Z,97957.50
2022-12-22T23:07:43.596Z,97946.41
2022-12-22T23:10:10.469Z,97946.41
2022-12-22T23:12:37.021Z,97948.94
2022-12-22T23:15:05.267Z,97946.34
2022-12-22T23:17:31.858Z,97955.75
2022-12-22T23:19:58.397Z,97953.19
2022-12-22T23:22:25.063Z,97960.84
2022-12-22T23:24:51.840Z,97952.38
2022-12-22T23:27:18.625Z,97954.06
2022-12-22T23:29:45.176Z,97942.97
2022-12-22T23:32:11.703Z,97947.25
2022-12-22T23:34:38.211Z,97948.09
2022-12-22T23:37:04.787Z,97942.13
2022-12-22T23:39:33.748Z,97948.09
2022-12-22T23:42:00.275Z,97943.88
2022-12-22T23:44:27.073Z,97942.13
2022-12-22T23:46:53.612Z,97938.69
2022-12-22T23:49:20.328Z,97937.03
2022-12-22T23:51:47.102Z,97939.56
2022-12-22T23:54:13.597Z,97940.38
2022-12-22T23:56:40.091Z,97936.97
2022-12-22T23:59:06.693Z,97943.75
